Terminal Aerodrome Forecast
Issued by NWS Cleveland, OH

Home | Current Version | Previous Version | Text Only | Print | Product List | Glossary On
Versions: 1 2 3 4 5 6 7 8 9 10 11 12 13 14 15 16 17 18
372
FTUS41 KCLE 262334
TAFMFD
TAF
KMFD 262334Z 2700/2724 19008KT 6SM -SHRA VCTS BKN025CB
      TEMPO 2700/2704 2SM -TSRA OVC015CB
     FM270400 22007KT 4SM BR OVC012
     FM271400 22009KT 5SM BR BKN015
     FM271600 22008KT P6SM BKN050 OVC150=

USA.gov is the U.S. government's official web portal to all federal, state and local government web resources and services.